Time;durP1;ratioP1;P1;durP2;ratioP2;P2;SDS_P1;SDS_P2;PMS_P1;PMS_P2;Temp;Humidity;BMP_temperature;BMP_pressure;BME280_temperature;BME280_humidity;BME280_pressure;Samples;Min_cycle;Max_cycle;Signal;HPM_P1;HPM_P2
2022/02/07 00:00:39;;;;;;;1.10;0.60;;;;;;;5.54;93.22;97093.41;4178900;28;20198;-89
2022/02/07 00:03:04;;;;;;;1.38;0.70;;;;;;;5.53;93.64;97096.09;4189899;28;20264;-88
2022/02/07 00:05:09;;;;;;;1.70;0.50;;;;;;;5.46;92.95;97116.34;4159123;28;20216;-88
2022/02/07 00:07:16;;;;;;;0.90;0.60;;;;;;;5.49;93.16;97129.06;4172966;28;20206;-89
2022/02/07 00:09:19;;;;;;;1.27;0.60;;;;;;;5.46;92.65;97134.44;4157777;28;20665;-89
2022/02/07 00:11:22;;;;;;;1.00;0.45;;;;;;;5.46;92.87;97136.19;4158341;28;20260;-89
2022/02/07 00:13:27;;;;;;;0.90;0.40;;;;;;;5.46;93.38;97131.84;4183986;28;20234;-89
2022/02/07 00:15:30;;;;;;;1.60;0.47;;;;;;;5.47;93.07;97130.91;4167921;28;20286;-89
2022/02/07 00:17:33;;;;;;;2.03;0.50;;;;;;;5.43;92.97;97129.47;4168401;28;20289;-89
2022/02/07 00:19:36;;;;;;;1.15;0.50;;;;;;;5.43;93.77;97131.22;4182921;28;20210;-88
2022/02/07 00:21:39;;;;;;;0.90;0.55;;;;;;;5.43;93.88;97119.13;4166091;28;20557;-88
2022/02/07 00:23:44;;;;;;;1.20;0.50;;;;;;;5.47;93.85;97114.56;4162834;28;20219;-88
2022/02/07 00:25:48;;;;;;;1.48;0.60;;;;;;;5.48;94.41;97106.72;4168345;28;20291;-88
2022/02/07 00:27:52;;;;;;;1.42;0.40;;;;;;;5.52;94.02;97126.28;4160568;28;20241;-88
2022/02/07 00:29:57;;;;;;;1.65;0.40;;;;;;;5.56;94.49;97139.84;4156684;28;20240;-88
2022/02/07 00:32:02;;;;;;;0.95;0.40;;;;;;;5.61;94.50;97148.97;4163476;28;20599;-88
2022/02/07 00:34:05;;;;;;;2.13;0.50;;;;;;;5.63;94.39;97189.31;4186387;28;20239;-88
2022/02/07 00:36:09;;;;;;;0.88;0.47;;;;;;;5.72;94.12;97180.16;4167536;28;20934;-88
2022/02/07 00:38:17;;;;;;;1.30;0.45;;;;;;;5.67;94.39;97175.28;4155228;28;20205;-88
2022/02/07 00:40:40;;;;;;;0.98;0.55;;;;;;;5.59;94.82;97165.50;4175815;28;20618;-88
2022/02/07 00:42:53;;;;;;;0.93;0.50;;;;;;;5.62;94.89;97155.78;4188793;28;20237;-88
2022/02/07 00:45:04;;;;;;;2.78;0.75;;;;;;;5.67;94.86;97141.66;4183474;28;20208;-88
2022/02/07 00:47:10;;;;;;;1.08;0.55;;;;;;;5.72;94.89;97146.53;4185868;28;20211;-88
2022/02/07 00:49:13;;;;;;;1.00;0.50;;;;;;;5.72;94.18;97154.28;4151229;28;20226;-87
2022/02/07 00:51:17;;;;;;;1.42;0.50;;;;;;;5.76;94.87;97151.44;4172118;28;20212;-88
2022/02/07 00:53:23;;;;;;;1.10;0.50;;;;;;;5.78;94.85;97141.00;4156985;28;20226;-88
2022/02/07 00:55:27;;;;;;;1.35;0.60;;;;;;;5.79;95.08;97140.06;4157663;28;20722;-89
2022/02/07 00:57:31;;;;;;;1.65;0.60;;;;;;;5.78;94.64;97144.41;4205982;28;20200;-88
2022/02/07 00:59:35;;;;;;;2.17;0.73;;;;;;;5.84;93.71;97149.19;4187309;28;20245;-88
2022/02/07 01:01:42;;;;;;;1.20;0.55;;;;;;;5.82;94.44;97145.06;4192365;28;20246;-88
2022/02/07 01:03:45;;;;;;;3.50;0.68;;;;;;;5.83;94.86;97165.66;4155524;28;20600;-88
2022/02/07 01:05:48;;;;;;;1.33;0.57;;;;;;;5.86;94.43;97190.47;4156116;28;20255;-88
2022/02/07 01:07:58;;;;;;;0.93;0.50;;;;;;;5.86;95.03;97188.69;4170223;28;20233;-88
2022/02/07 01:10:01;;;;;;;0.90;0.47;;;;;;;5.88;94.90;97199.81;4200214;28;20218;-88
2022/02/07 01:12:16;;;;;;;2.08;0.60;;;;;;;5.91;94.47;97222.03;4182240;28;20232;-88
2022/02/07 01:14:48;;;;;;;0.90;0.50;;;;;;;5.94;94.74;97211.50;4172774;28;20707;-88
2022/02/07 01:17:36;;;;;;;1.70;0.40;;;;;;;5.94;94.67;97216.66;4157187;28;20221;-88
2022/02/07 01:48:17;;;;;;;1.40;0.50;;;;;;;5.98;93.22;97306.13;4174311;28;20212;-89
2022/02/07 01:53:00;;;;;;;2.78;0.70;;;;;;;5.90;92.88;97335.06;4144590;28;20298;-87
2022/02/07 01:55:12;;;;;;;1.73;0.50;;;;;;;5.87;91.73;97329.25;4170788;28;20768;-88
2022/02/07 01:57:16;;;;;;;1.05;0.50;;;;;;;5.81;91.68;97340.78;4155174;28;20221;-88
2022/02/07 01:59:22;;;;;;;1.30;0.65;;;;;;;5.76;91.41;97349.78;4156950;28;20217;-88
2022/02/07 02:01:29;;;;;;;2.00;0.80;;;;;;;5.72;91.19;97363.78;4161585;28;20291;-88
2022/02/07 02:03:35;;;;;;;1.23;0.50;;;;;;;5.76;91.50;97388.56;4157811;28;20284;-88
2022/02/07 02:05:39;;;;;;;1.13;0.50;;;;;;;5.72;91.25;97379.28;4158830;28;20218;-88
2022/02/07 02:07:51;;;;;;;2.70;0.50;;;;;;;5.68;90.57;97386.41;4158729;28;20304;-88
2022/02/07 02:09:56;;;;;;;1.33;0.50;;;;;;;5.65;90.66;97396.94;4171382;28;20309;-87
2022/02/07 02:12:02;;;;;;;1.35;0.47;;;;;;;5.67;90.65;97404.63;4158029;28;20241;-89
2022/02/07 02:14:28;;;;;;;1.25;0.60;;;;;;;5.66;89.21;97410.69;4157062;28;20233;-87
2022/02/07 02:16:38;;;;;;;1.52;0.70;;;;;;;5.60;88.74;97418.81;4176456;28;20258;-88
2022/02/07 02:19:18;;;;;;;1.58;0.50;;;;;;;5.57;88.40;97429.34;4159579;28;20218;-88
2022/02/07 02:36:18;;;;;;;1.50;0.50;;;;;;;5.36;88.33;97474.56;4130953;28;20217;-87
2022/02/07 02:38:44;;;;;;;1.30;0.60;;;;;;;5.33;88.34;97479.91;4158362;28;20923;-87
2022/02/07 02:45:32;;;;;;;2.45;0.70;;;;;;;5.33;88.38;97505.75;4205409;28;20235;-87
2022/02/07 02:47:39;;;;;;;1.65;0.68;;;;;;;5.35;87.39;97516.84;4204993;28;20215;-88
2022/02/07 02:50:02;;;;;;;1.38;0.60;;;;;;;5.37;87.54;97504.66;4155953;28;20202;-88
2022/02/07 02:52:07;;;;;;;2.38;0.75;;;;;;;5.35;86.97;97519.44;4169828;28;20315;-87
2022/02/07 02:54:10;;;;;;;2.95;0.70;;;;;;;5.34;87.17;97533.28;4175879;28;20221;-87
2022/02/07 02:56:15;;;;;;;2.55;0.70;;;;;;;5.38;87.51;97542.53;4171008;28;20213;-87
2022/02/07 02:58:26;;;;;;;2.85;0.70;;;;;;;5.40;86.78;97542.44;4189904;28;20228;-88
2022/02/07 03:00:33;;;;;;;1.63;0.70;;;;;;;5.40;86.62;97551.00;4189741;28;20210;-88
2022/02/07 03:02:39;;;;;;;1.98;0.80;;;;;;;5.46;87.44;97565.31;4158949;28;20266;-88
2022/02/07 03:04:42;;;;;;;3.65;0.85;;;;;;;5.49;86.06;97563.41;4160351;28;20294;-88
2022/02/07 03:06:48;;;;;;;1.50;0.80;;;;;;;5.49;86.32;97568.59;4171267;28;20215;-88
2022/02/07 03:08:51;;;;;;;2.45;0.80;;;;;;;5.45;86.15;97574.03;4171918;28;20259;-89
2022/02/07 03:11:02;;;;;;;2.55;0.80;;;;;;;5.49;85.56;97580.66;4158946;28;20238;-88
2022/02/07 03:13:13;;;;;;;3.00;1.02;;;;;;;5.43;85.39;97587.03;4174743;28;20228;-88
2022/02/07 03:17:37;;;;;;;1.88;0.77;;;;;;;5.42;84.55;97593.13;4125810;28;20203;-89
2022/02/07 03:19:40;;;;;;;3.38;0.93;;;;;;;5.45;84.67;97615.38;4176937;28;20212;-88
2022/02/07 03:21:44;;;;;;;3.38;0.93;;;;;;;5.47;85.13;97608.38;4188293;28;20306;-89
2022/02/07 03:23:48;;;;;;;2.78;1.00;;;;;;;5.48;85.75;97616.03;4169811;28;20203;-87
2022/02/07 03:25:55;;;;;;;1.52;0.70;;;;;;;5.54;85.75;97620.06;4159634;28;20693;-88
2022/02/07 03:27:59;;;;;;;5.22;0.80;;;;;;;5.49;85.32;97630.66;4169895;28;20215;-88
2022/02/07 03:30:13;;;;;;;1.40;0.80;;;;;;;5.49;85.64;97645.31;4182633;28;20201;-89
2022/02/07 03:32:23;;;;;;;5.85;1.27;;;;;;;5.47;85.22;97645.38;4178225;28;22450;-88
2022/02/07 03:34:38;;;;;;;1.90;0.80;;;;;;;5.47;86.68;97657.50;4188560;28;20223;-89
2022/02/07 03:36:43;;;;;;;2.00;0.90;;;;;;;5.49;86.48;97661.69;4190826;28;20313;-87
2022/02/07 03:38:48;;;;;;;0.95;0.60;;;;;;;5.49;86.07;97677.19;4187840;28;20661;-88
2022/02/07 03:40:55;;;;;;;3.42;0.63;;;;;;;5.48;86.21;97683.25;4205698;28;20207;-88
2022/02/07 03:42:59;;;;;;;1.48;0.70;;;;;;;5.44;86.01;97692.13;4182261;28;20208;-88
2022/02/07 03:45:02;;;;;;;2.38;0.90;;;;;;;5.39;86.88;97719.97;4160441;28;20209;-88
2022/02/07 03:47:10;;;;;;;3.40;0.70;;;;;;;5.39;87.34;97719.13;4184465;28;20646;-89
2022/02/07 03:49:13;;;;;;;2.25;0.93;;;;;;;5.39;87.24;97732.06;4162384;28;20212;-87
2022/02/07 03:51:17;;;;;;;1.65;0.70;;;;;;;5.38;88.16;97744.16;4188852;28;20213;-88
2022/02/07 03:53:20;;;;;;;2.00;0.70;;;;;;;5.31;87.97;97760.91;4156943;28;20204;-88
2022/02/07 03:55:49;;;;;;;1.90;0.70;;;;;;;5.35;87.97;97782.25;4168086;28;20231;-88
2022/02/07 03:57:52;;;;;;;2.00;0.70;;;;;;;5.14;87.75;97770.44;4172541;28;20658;-88
2022/02/07 04:00:00;;;;;;;2.00;0.70;;;;;;;5.09;89.00;97779.38;4172062;28;20212;-88
2022/02/07 04:02:04;;;;;;;2.35;0.60;;;;;;;5.05;88.84;97803.69;4168810;28;22248;-88
2022/02/07 04:04:15;;;;;;;0.80;0.40;;;;;;;5.05;88.46;97801.97;4157054;28;20204;-88
2022/02/07 04:06:20;;;;;;;2.17;0.60;;;;;;;5.02;88.87;97802.13;4204667;28;20605;-88
2022/02/07 04:08:40;;;;;;;1.70;0.50;;;;;;;4.91;89.64;97801.81;4184514;28;20219;-88
2022/02/07 04:10:58;;;;;;;1.10;0.50;;;;;;;4.81;89.75;97817.84;4202925;28;20287;-88
2022/02/07 04:13:04;;;;;;;1.00;0.40;;;;;;;4.77;89.15;97830.06;4176268;28;20246;-88
2022/02/07 04:15:14;;;;;;;2.35;0.60;;;;;;;4.75;88.56;97828.47;4166589;28;20220;-88
2022/02/07 04:17:23;;;;;;;2.22;0.75;;;;;;;4.73;89.37;97838.06;4187889;28;20756;-88
2022/02/07 04:19:33;;;;;;;1.60;0.50;;;;;;;4.72;88.21;97841.53;4153680;28;20377;-88
2022/02/07 04:21:38;;;;;;;2.15;0.50;;;;;;;4.67;88.76;97846.09;4156718;28;20329;-88
2022/02/07 04:23:44;;;;;;;0.95;0.47;;;;;;;4.74;87.94;97857.81;4158985;28;20204;-89
2022/02/07 04:26:16;;;;;;;1.98;0.40;;;;;;;4.65;86.48;97862.59;4156940;28;20200;-87
2022/02/07 04:28:19;;;;;;;0.90;0.50;;;;;;;4.59;87.67;97880.97;4157147;28;20879;-88
2022/02/07 04:30:23;;;;;;;1.00;0.60;;;;;;;4.57;87.91;97886.22;4188770;28;20318;-89
2022/02/07 04:32:26;;;;;;;0.98;0.60;;;;;;;4.57;87.21;97890.50;4155763;28;20273;-88
2022/02/07 04:34:34;;;;;;;0.80;0.55;;;;;;;4.55;86.37;97900.09;4192045;28;20698;-89
2022/02/07 04:36:38;;;;;;;4.53;0.60;;;;;;;4.53;86.20;97909.66;4159836;28;20235;-89
2022/02/07 04:38:41;;;;;;;1.50;0.50;;;;;;;4.45;87.33;97919.50;4174066;28;20313;-87
2022/02/07 04:40:47;;;;;;;1.00;0.52;;;;;;;4.46;86.78;97924.59;4156627;28;20206;-88
2022/02/07 04:42:51;;;;;;;1.33;0.50;;;;;;;4.46;87.96;97923.75;4159644;28;20208;-88
2022/02/07 04:45:13;;;;;;;0.80;0.40;;;;;;;4.43;88.10;97945.38;4199907;28;20198;-88
2022/02/07 04:47:36;;;;;;;1.15;0.50;;;;;;;4.40;88.12;97955.84;4156554;28;20295;-87
2022/02/07 04:50:02;;;;;;;2.38;0.70;;;;;;;4.37;87.11;97957.72;4169804;28;20726;-88
2022/02/07 04:52:09;;;;;;;2.13;0.60;;;;;;;4.41;86.97;97960.09;4164341;28;20244;-88
2022/02/07 04:59:04;;;;;;;1.23;0.57;;;;;;;4.41;87.63;97978.19;4173174;28;20251;-88
2022/02/07 05:01:13;;;;;;;3.15;1.10;;;;;;;4.41;88.38;97985.09;4165959;28;20204;-88
2022/02/07 05:03:21;;;;;;;3.20;0.70;;;;;;;4.39;88.47;97990.31;4186735;28;20751;-88
2022/02/07 05:13:38;;;;;;;2.35;0.82;;;;;;;4.43;88.23;97994.41;4157156;28;20291;-88
2022/02/07 05:14:54;;;;;;;1.50;0.80;;;;;;;4.57;87.47;98033.38;4150885;28;20208;-87
2022/02/07 05:16:59;;;;;;;1.25;0.73;;;;;;;4.56;87.28;98047.19;4193519;28;20660;-87
2022/02/07 05:19:07;;;;;;;5.53;0.70;;;;;;;4.52;88.33;98047.38;4168885;28;20215;-87
2022/02/07 05:21:21;;;;;;;2.78;1.05;;;;;;;4.53;87.37;98047.31;4172420;28;20223;-87
2022/02/07 05:23:40;;;;;;;2.17;1.00;;;;;;;4.52;87.38;98058.53;4175143;28;21030;-88
2022/02/07 05:26:08;;;;;;;1.90;1.15;;;;;;;4.52;87.16;98063.69;4168828;28;20688;-87
2022/02/07 05:28:25;;;;;;;3.28;0.98;;;;;;;4.51;87.64;98067.22;4191497;28;20289;-88
2022/02/07 05:30:46;;;;;;;1.80;1.00;;;;;;;4.55;87.77;98081.63;4164689;28;20307;-88
2022/02/07 05:33:01;;;;;;;2.75;0.90;;;;;;;4.59;87.10;98075.44;4173075;28;20203;-88
2022/02/07 05:35:27;;;;;;;1.95;0.90;;;;;;;4.61;88.00;98081.38;4160021;28;20218;-88
2022/02/07 05:37:49;;;;;;;2.70;0.90;;;;;;;4.66;88.26;98097.50;4182859;28;20583;-88
2022/02/07 05:40:28;;;;;;;3.33;1.20;;;;;;;4.69;88.24;98108.53;4165092;28;20229;-87
2022/02/07 05:42:57;;;;;;;3.40;0.82;;;;;;;4.71;86.75;98111.88;4147861;28;20300;-88
2022/02/07 05:45:29;;;;;;;3.15;0.88;;;;;;;4.72;86.91;98110.13;4167949;28;20559;-87
2022/02/07 05:47:51;;;;;;;1.20;0.60;;;;;;;4.67;87.85;98117.25;4170599;28;20257;-88
2022/02/07 05:50:14;;;;;;;2.90;0.75;;;;;;;4.68;87.79;98121.50;4185493;28;20732;-87
2022/02/07 05:52:51;;;;;;;2.03;0.75;;;;;;;4.65;87.22;98142.31;4154252;28;20223;-88
2022/02/07 05:54:58;;;;;;;1.55;0.68;;;;;;;4.63;87.39;98144.13;4166571;28;20770;-87
2022/02/07 05:57:19;;;;;;;3.78;0.90;;;;;;;4.61;86.90;98151.06;4156016;28;20237;-88
2022/02/07 05:59:51;;;;;;;3.63;0.98;;;;;;;4.62;86.62;98162.28;4120101;28;20206;-87
2022/02/07 06:02:15;;;;;;;2.45;0.80;;;;;;;4.60;85.99;98164.06;4186674;28;20697;-88
2022/02/07 06:04:19;;;;;;;1.98;0.80;;;;;;;4.63;85.48;98174.25;4172364;28;20266;-87
2022/02/07 06:06:25;;;;;;;2.25;0.68;;;;;;;4.61;85.54;98178.66;4166537;28;20204;-87
2022/02/07 06:08:29;;;;;;;2.22;0.73;;;;;;;4.54;85.72;98185.84;4205056;28;20303;-87
2022/02/07 06:10:35;;;;;;;3.67;0.95;;;;;;;4.55;85.05;98192.66;4168467;28;20233;-88
2022/02/07 06:12:40;;;;;;;3.92;0.90;;;;;;;4.56;85.97;98196.09;4156707;28;20212;-87
2022/02/07 06:14:44;;;;;;;2.25;1.23;;;;;;;4.60;86.51;98205.38;4181399;28;20210;-87
2022/02/07 06:16:48;;;;;;;3.88;0.90;;;;;;;4.65;85.83;98212.03;4164046;28;20221;-88
2022/02/07 06:18:55;;;;;;;3.33;0.80;;;;;;;4.69;85.38;98216.13;4179494;28;20217;-87
2022/02/07 06:21:07;;;;;;;2.33;1.00;;;;;;;4.73;84.88;98217.69;4158945;28;20717;-87
2022/02/07 06:23:13;;;;;;;3.58;1.15;;;;;;;4.76;85.39;98225.31;4157335;28;20245;-88
2022/02/07 06:25:21;;;;;;;3.97;1.33;;;;;;;4.76;85.50;98231.31;4157741;28;20194;-88
2022/02/07 06:27:27;;;;;;;4.57;1.17;;;;;;;4.78;85.08;98239.84;4171328;28;20209;-87
2022/02/07 06:29:31;;;;;;;2.85;0.75;;;;;;;4.83;84.78;98249.97;4175619;28;20280;-87
2022/02/07 06:31:35;;;;;;;3.05;1.13;;;;;;;4.84;85.93;98247.34;4176877;28;20201;-87
2022/02/07 06:33:39;;;;;;;3.78;1.35;;;;;;;4.87;85.91;98252.38;4176689;28;20306;-87
2022/02/07 06:35:45;;;;;;;3.67;1.00;;;;;;;4.92;84.83;98254.75;4156991;28;20304;-87
2022/02/07 06:37:49;;;;;;;3.22;1.20;;;;;;;4.94;84.93;98258.91;4187142;28;20722;-90
2022/02/07 06:39:55;;;;;;;3.65;1.10;;;;;;;4.93;84.42;98251.25;4159552;28;20551;-89
2022/02/07 06:41:59;;;;;;;4.10;1.15;;;;;;;4.93;84.33;98266.75;4175467;28;20208;-89
2022/02/07 06:44:10;;;;;;;5.47;1.10;;;;;;;4.97;84.63;98263.97;4159192;28;20212;-88
2022/02/07 06:46:14;;;;;;;5.70;1.75;;;;;;;4.98;84.08;98272.56;4189495;28;20252;-89
2022/02/07 06:48:19;;;;;;;5.38;1.20;;;;;;;4.99;84.95;98269.06;4172052;28;20208;-89
2022/02/07 06:50:22;;;;;;;1.85;0.80;;;;;;;5.01;84.90;98275.03;4153941;28;20199;-87
2022/02/07 06:52:26;;;;;;;3.70;1.40;;;;;;;5.04;83.87;98280.06;4175051;28;20624;-89
2022/02/07 06:54:30;;;;;;;3.88;1.08;;;;;;;5.00;83.02;98278.50;4170688;28;20204;-90
2022/02/07 06:56:34;;;;;;;2.70;1.10;;;;;;;5.01;83.42;98290.53;4158446;28;20221;-88
2022/02/07 06:58:41;;;;;;;2.42;0.93;;;;;;;5.04;83.61;98296.38;4189141;28;20257;-87
2022/02/07 07:00:46;;;;;;;4.82;1.20;;;;;;;5.07;83.18;98300.59;4158499;28;20212;-88
2022/02/07 07:02:50;;;;;;;8.15;1.55;;;;;;;5.09;82.52;98296.19;4154061;28;20575;-89
2022/02/07 07:04:56;;;;;;;3.17;1.65;;;;;;;5.12;83.03;98311.56;4172719;28;20254;-89
2022/02/07 07:07:00;;;;;;;3.97;1.20;;;;;;;5.12;83.41;98314.16;4174724;28;20221;-89
2022/02/07 07:09:09;;;;;;;4.05;1.20;;;;;;;5.10;83.39;98310.75;4161097;28;20200;-87
2022/02/07 07:11:17;;;;;;;3.28;1.40;;;;;;;5.11;83.32;98315.03;4159393;28;20268;-88
2022/02/07 07:13:26;;;;;;;6.90;1.38;;;;;;;5.11;83.84;98322.78;4158529;28;20255;-88
2022/02/07 07:15:38;;;;;;;4.22;1.75;;;;;;;5.16;83.22;98327.69;4163110;28;20236;-90
2022/02/07 07:17:43;;;;;;;3.38;1.30;;;;;;;5.17;83.34;98331.13;4188148;28;20221;-90
2022/02/07 07:19:47;;;;;;;3.65;1.25;;;;;;;5.19;83.44;98337.06;4171810;28;20204;-89
2022/02/07 07:21:50;;;;;;;2.40;0.93;;;;;;;5.21;83.28;98340.44;4172529;28;20220;-91
2022/02/07 07:23:57;;;;;;;5.40;2.20;;;;;;;5.21;83.21;98356.75;4206505;28;20211;-90
2022/02/07 07:26:01;;;;;;;4.60;1.23;;;;;;;5.23;82.46;98365.31;4169922;28;20216;-89
2022/02/07 07:28:08;;;;;;;4.50;1.50;;;;;;;5.23;82.87;98360.16;4206641;28;20286;-89
2022/02/07 07:30:17;;;;;;;3.97;1.70;;;;;;;5.24;83.71;98376.47;4161631;28;20208;-89
2022/02/07 07:32:23;;;;;;;4.18;1.30;;;;;;;5.24;84.01;98377.31;4172269;28;20246;-88
2022/02/07 07:34:35;;;;;;;5.95;1.60;;;;;;;5.26;83.53;98383.28;4175922;28;20691;-88
2022/02/07 07:36:59;;;;;;;5.25;1.05;;;;;;;5.26;83.71;98391.03;4179712;28;20239;-87
2022/02/07 07:39:03;;;;;;;5.55;1.48;;;;;;;5.29;83.03;98390.91;4170150;28;20204;-89
2022/02/07 07:41:06;;;;;;;2.80;1.20;;;;;;;5.31;83.20;98399.41;4154487;28;20232;-89
2022/02/07 07:43:24;;;;;;;4.10;1.40;;;;;;;5.36;82.95;98396.63;4181594;28;20257;-89
2022/02/07 07:45:43;;;;;;;3.47;1.13;;;;;;;5.31;83.13;98399.41;4181020;28;20235;-89
2022/02/07 07:48:09;;;;;;;6.55;2.85;;;;;;;5.32;82.72;98416.63;4154277;28;20240;-88
2022/02/07 07:50:31;;;;;;;3.05;1.25;;;;;;;5.32;83.75;98421.78;4151117;28;20199;-89
2022/02/07 07:53:05;;;;;;;2.65;1.27;;;;;;;5.31;83.95;98421.88;4184789;28;20353;-89
2022/02/07 07:55:29;;;;;;;4.18;1.95;;;;;;;5.35;82.99;98426.84;4175755;28;20198;-89
2022/02/07 08:02:24;;;;;;;3.45;1.20;;;;;;;5.35;83.29;98447.53;4174367;28;20263;-88
2022/02/07 08:04:31;;;;;;;3.88;1.30;;;;;;;5.35;84.19;98444.94;4164394;28;20192;-89
2022/02/07 08:06:43;;;;;;;4.88;1.35;;;;;;;5.37;84.16;98456.03;4172568;28;20193;-89
2022/02/07 08:08:50;;;;;;;5.82;1.50;;;;;;;5.40;83.33;98453.31;4155700;28;20212;-90
2022/02/07 08:11:01;;;;;;;8.20;2.13;;;;;;;5.42;83.64;98469.59;4163330;28;20645;-88
2022/02/07 08:13:15;;;;;;;3.55;2.00;;;;;;;5.42;83.45;98468.78;4176687;28;20744;-87
2022/02/07 08:15:24;;;;;;;3.63;1.58;;;;;;;5.41;84.24;98474.84;4176095;28;20205;-87
2022/02/07 08:17:28;;;;;;;2.80;1.23;;;;;;;5.45;83.14;98472.06;4184342;28;20322;-88
2022/02/07 08:19:32;;;;;;;5.53;1.40;;;;;;;5.45;83.01;98479.00;4187630;28;20307;-89
2022/02/07 08:21:36;;;;;;;9.20;1.55;;;;;;;5.47;83.09;98483.19;4171005;28;20215;-88
2022/02/07 08:23:40;;;;;;;5.45;1.23;;;;;;;5.44;82.78;98488.50;4173950;28;20584;-86
2022/02/07 08:25:44;;;;;;;4.57;1.33;;;;;;;5.45;82.77;98485.00;4184307;28;20252;-85
2022/02/07 08:28:09;;;;;;;6.38;1.80;;;;;;;5.48;82.98;98495.22;4175976;28;20643;-84
2022/02/07 08:30:13;;;;;;;3.63;1.58;;;;;;;5.50;83.34;98495.97;4189351;28;20215;-86
2022/02/07 08:32:16;;;;;;;4.53;1.73;;;;;;;5.55;83.54;98501.81;4184593;28;20208;-87
2022/02/07 08:34:19;;;;;;;3.20;1.45;;;;;;;5.56;82.42;98502.66;4171464;28;20224;-85
2022/02/07 08:36:22;;;;;;;6.93;1.90;;;;;;;5.55;82.78;98512.16;4204212;28;20209;-86
2022/02/07 08:38:25;;;;;;;4.18;1.58;;;;;;;5.57;82.79;98530.22;4186815;28;20238;-85
2022/02/07 08:40:33;;;;;;;6.57;1.80;;;;;;;5.58;83.33;98532.72;4164820;28;20292;-85
2022/02/07 08:42:36;;;;;;;5.88;1.67;;;;;;;5.59;83.16;98542.16;4184264;28;20679;-85
2022/02/07 08:44:39;;;;;;;6.00;1.80;;;;;;;5.62;82.85;98539.44;4169207;28;20214;-87
2022/02/07 08:46:43;;;;;;;8.80;1.65;;;;;;;5.67;82.66;98546.13;4186837;28;20229;-85
2022/02/07 08:48:46;;;;;;;6.45;1.90;;;;;;;5.74;82.50;98559.66;4205448;28;20196;-86
2022/02/07 08:50:54;;;;;;;7.15;1.90;;;;;;;5.76;81.88;98552.69;4175567;28;20702;-86
2022/02/07 08:52:59;;;;;;;7.53;1.95;;;;;;;5.71;82.40;98559.75;4178731;28;20204;-86
2022/02/07 08:55:05;;;;;;;4.60;1.45;;;;;;;5.70;82.30;98558.09;4167476;28;20259;-86
2022/02/07 08:57:34;;;;;;;4.15;1.70;;;;;;;5.75;82.95;98566.53;4204262;28;20187;-86
2022/02/07 08:59:50;;;;;;;5.00;1.52;;;;;;;5.76;82.59;98579.41;4172057;28;20233;-85
2022/02/07 09:02:05;;;;;;;5.13;1.42;;;;;;;5.77;82.32;98588.84;4156852;28;20218;-85
2022/02/07 09:04:41;;;;;;;5.18;2.10;;;;;;;5.79;82.36;98593.97;4160023;28;20208;-86
2022/02/07 09:06:56;;;;;;;3.78;1.55;;;;;;;5.76;82.42;98596.69;4188284;28;20217;-86
2022/02/07 09:09:15;;;;;;;6.65;1.80;;;;;;;5.77;82.68;98600.94;4158264;28;20206;-90
2022/02/07 09:11:20;;;;;;;6.03;1.50;;;;;;;5.81;82.53;98605.91;4157174;28;20301;-86
2022/02/07 09:13:30;;;;;;;7.00;1.95;;;;;;;5.86;82.28;98610.91;4161335;28;20241;-86
2022/02/07 09:15:42;;;;;;;5.47;1.45;;;;;;;5.87;81.47;98607.41;4172857;28;20640;-87
2022/02/07 09:17:45;;;;;;;5.13;1.70;;;;;;;5.85;81.63;98611.78;4189418;28;20210;-87
2022/02/07 09:19:48;;;;;;;7.90;1.90;;;;;;;5.85;81.88;98614.38;4182441;28;20253;-87
2022/02/07 09:21:51;;;;;;;7.75;1.65;;;;;;;5.86;81.35;98622.09;4174098;28;20704;-87
2022/02/07 09:23:55;;;;;;;5.80;1.60;;;;;;;5.92;81.81;98626.19;4158329;28;20199;-87
2022/02/07 09:25:58;;;;;;;4.60;1.98;;;;;;;5.89;81.35;98627.13;4171608;28;20271;-87
2022/02/07 09:28:04;;;;;;;4.35;1.50;;;;;;;5.92;81.74;98633.94;4173765;28;20201;-87
2022/02/07 09:30:11;;;;;;;10.40;1.83;;;;;;;5.96;81.84;98627.75;4173513;28;20202;-86
2022/02/07 09:32:14;;;;;;;4.43;1.20;;;;;;;6.02;81.47;98619.72;4163665;28;20239;-87
2022/02/07 09:34:20;;;;;;;7.40;1.70;;;;;;;6.07;81.45;98630.72;4156420;28;20213;-85
2022/02/07 09:36:25;;;;;;;5.47;1.40;;;;;;;6.16;81.62;98619.09;4167415;28;20284;-85
2022/02/07 09:38:28;;;;;;;2.92;1.35;;;;;;;6.26;81.71;98625.53;4158944;28;20286;-86
2022/02/07 09:40:32;;;;;;;6.03;1.50;;;;;;;6.35;81.95;98616.53;4159115;28;20220;-87
2022/02/07 09:42:35;;;;;;;4.78;1.70;;;;;;;6.38;81.15;98616.41;4168852;28;20209;-85
2022/02/07 09:44:44;;;;;;;4.68;1.60;;;;;;;6.39;81.22;98631.03;4186236;28;20307;-86
2022/02/07 09:46:51;;;;;;;5.50;1.52;;;;;;;6.40;81.60;98630.13;4187835;28;20682;-87
2022/02/07 09:48:56;;;;;;;4.95;1.65;;;;;;;6.45;80.68;98636.78;4187852;28;20195;-86
2022/02/07 09:50:59;;;;;;;4.53;1.45;;;;;;;6.49;80.86;98630.56;4153307;28;20206;-86
2022/02/07 09:53:03;;;;;;;6.50;1.80;;;;;;;6.56;80.27;98648.34;4164415;28;20212;-87
2022/02/07 09:55:08;;;;;;;3.70;1.40;;;;;;;6.61;79.39;98655.94;4174004;28;20233;-85
2022/02/07 09:57:11;;;;;;;4.97;2.10;;;;;;;6.65;79.75;98665.25;4170160;28;20228;-87
2022/02/07 09:59:18;;;;;;;6.65;1.90;;;;;;;6.67;80.12;98676.41;4158643;28;20241;-86
2022/02/07 10:01:28;;;;;;;2.17;1.30;;;;;;;6.67;79.65;98674.63;4157400;28;20209;-86
2022/02/07 10:03:47;;;;;;;5.93;1.73;;;;;;;6.69;79.41;98683.19;4161340;28;20763;-86
2022/02/07 10:05:54;;;;;;;3.58;1.52;;;;;;;6.68;79.18;98684.09;4160415;28;20222;-86
2022/02/07 10:08:04;;;;;;;4.07;1.70;;;;;;;6.71;78.81;98698.69;4192402;28;20740;-86
2022/02/07 10:10:23;;;;;;;6.65;1.85;;;;;;;6.67;78.90;98704.91;4161880;28;20604;-87
2022/02/07 10:12:42;;;;;;;3.15;1.38;;;;;;;6.69;78.72;98701.34;4175073;28;20239;-87
2022/02/07 10:14:54;;;;;;;4.72;1.92;;;;;;;6.73;78.93;98702.03;4173173;28;20701;-85
2022/02/07 10:17:17;;;;;;;5.15;1.70;;;;;;;6.73;78.91;98708.06;4162989;28;20297;-86
2022/02/07 10:19:31;;;;;;;3.97;1.60;;;;;;;6.73;78.36;98709.81;4173115;28;20224;-87
2022/02/07 10:22:01;;;;;;;6.88;3.70;;;;;;;6.75;78.26;98720.94;4158635;28;20234;-86
2022/02/07 10:38:39;;;;;;;6.30;1.70;;;;;;;6.80;79.07;98731.97;4151334;28;20276;-85
2022/02/07 10:40:56;;;;;;;5.82;1.70;;;;;;;6.81;79.01;98736.22;4168122;28;20908;-86
2022/02/07 10:43:20;;;;;;;9.07;2.72;;;;;;;6.83;79.48;98740.47;4171272;28;20214;-86
2022/02/07 10:45:24;;;;;;;7.18;1.90;;;;;;;6.90;78.11;98746.22;4189042;28;20303;-87
2022/02/07 10:47:37;;;;;;;9.13;2.05;;;;;;;6.86;76.88;98762.81;4173070;28;20593;-86
2022/02/07 10:49:59;;;;;;;4.45;1.40;;;;;;;6.77;76.78;98761.47;4155900;28;20217;-86
2022/02/07 10:52:05;;;;;;;2.78;1.38;;;;;;;6.74;75.78;98756.41;4165929;28;20210;-86
2022/02/07 10:54:11;;;;;;;6.22;1.60;;;;;;;6.76;76.60;98764.09;4184179;28;20198;-84
2022/02/07 10:56:16;;;;;;;4.82;1.70;;;;;;;6.77;77.10;98771.00;4160298;28;20199;-86
2022/02/07 10:58:19;;;;;;;4.25;1.70;;;;;;;6.83;76.87;98779.34;4174391;28;20207;-85
2022/02/07 11:00:28;;;;;;;3.72;1.70;;;;;;;6.84;77.26;98783.63;4174832;28;20833;-85
2022/02/07 11:02:51;;;;;;;3.72;1.52;;;;;;;6.88;77.36;98779.16;4173182;28;20289;-85
2022/02/07 11:05:00;;;;;;;5.47;1.60;;;;;;;6.88;76.84;98787.75;4157970;28;20368;-87
2022/02/07 11:07:05;;;;;;;5.22;1.88;;;;;;;6.89;76.95;98786.84;4171549;28;20218;-86
2022/02/07 11:09:14;;;;;;;7.40;1.90;;;;;;;6.89;77.61;98796.41;4183037;28;20262;-86
2022/02/07 11:11:44;;;;;;;7.13;2.20;;;;;;;6.91;77.49;98802.34;4166291;28;20227;-87
2022/02/07 11:14:02;;;;;;;5.60;2.00;;;;;;;6.95;77.93;98816.88;4169406;28;20596;-90
2022/02/07 11:16:15;;;;;;;5.15;1.85;;;;;;;6.96;77.61;98818.53;4187115;28;20209;-91
2022/02/07 11:18:33;;;;;;;12.43;3.75;;;;;;;6.96;76.03;98818.53;4189278;28;20204;-90
2022/02/07 11:23:10;;;;;;;4.97;2.00;;;;;;;6.91;76.21;98841.22;4170171;28;20220;-89
2022/02/07 11:25:40;;;;;;;7.47;1.95;;;;;;;6.87;78.30;98857.81;4173181;28;20765;-89
2022/02/07 11:27:50;;;;;;;3.38;1.45;;;;;;;6.88;76.89;98841.34;4172441;28;20234;-90
2022/02/07 11:29:55;;;;;;;9.98;2.80;;;;;;;6.86;77.52;98849.19;4173213;28;20224;-88
2022/02/07 11:32:01;;;;;;;7.05;2.03;;;;;;;6.85;76.99;98844.91;4169968;28;20199;-87
2022/02/07 11:34:11;;;;;;;9.65;2.00;;;;;;;6.83;77.79;98856.25;4185567;28;20205;-88
2022/02/07 11:36:25;;;;;;;8.43;1.85;;;;;;;6.83;77.71;98864.03;4153638;28;20720;-88
2022/02/07 11:38:30;;;;;;;6.07;2.58;;;;;;;6.83;78.67;98866.63;4172925;28;20222;-92
2022/02/07 11:40:35;;;;;;;9.85;4.10;;;;;;;6.82;78.25;98877.91;4159210;28;20783;-88
2022/02/07 11:43:09;;;;;;;7.32;2.45;;;;;;;6.83;78.60;98874.41;4199815;28;20201;-87
2022/02/07 11:45:15;;;;;;;4.57;1.65;;;;;;;6.85;76.90;98893.31;4172693;28;20252;-88